createdAt,value
2019-03-01T00:01:21.364Z,16.87
2019-03-01T00:03:53.000Z,13.30
2019-03-01T00:06:27.679Z,21.57
2019-03-01T00:09:22.002Z,18.20
2019-03-01T00:12:05.029Z,16.10
2019-03-01T00:14:56.305Z,19.70
2019-03-01T00:17:39.839Z,15.27
2019-03-01T00:20:20.383Z,15.73
2019-03-01T00:22:57.609Z,11.93
2019-03-01T00:25:44.268Z,17.63
2019-03-01T00:28:22.179Z,12.20
2019-03-01T00:30:59.540Z,13.20
2019-03-01T00:33:53.912Z,9.83
2019-03-01T00:36:40.057Z,14.57
2019-03-01T00:39:26.626Z,11.67
2019-03-01T00:42:00.910Z,14.03
2019-03-01T00:44:31.901Z,14.77
2019-03-01T00:47:00.544Z,23.23
2019-03-01T00:49:30.731Z,16.60
2019-03-01T00:51:59.321Z,18.30
2019-03-01T00:54:27.899Z,19.73
2019-03-01T00:56:56.456Z,14.00
2019-03-01T00:59:25.032Z,13.93
2019-03-01T01:01:53.584Z,21.47
2019-03-01T01:04:22.169Z,12.40
2019-03-01T01:06:50.828Z,15.77
2019-03-01T01:09:19.392Z,17.60
2019-03-01T01:11:48.003Z,20.30
2019-03-01T01:14:16.587Z,19.23
2019-03-01T01:16:45.165Z,15.90
2019-03-01T01:19:13.707Z,15.13
2019-03-01T01:21:42.271Z,23.40
2019-03-01T01:24:10.864Z,14.63
2019-03-01T01:26:39.436Z,18.60
2019-03-01T01:29:08.055Z,18.70
2019-03-01T01:31:36.860Z,15.47
2019-03-01T01:34:05.519Z,12.50
2019-03-01T01:36:34.084Z,15.07
2019-03-01T01:39:02.691Z,11.73
2019-03-01T01:41:31.341Z,10.33
2019-03-01T01:43:59.973Z,24.83
2019-03-01T01:46:28.498Z,13.13
2019-03-01T01:48:57.043Z,14.57
2019-03-01T01:51:25.683Z,14.53
2019-03-01T01:53:54.240Z,12.83
2019-03-01T01:56:22.821Z,13.40
2019-03-01T01:58:51.365Z,14.53
2019-03-01T02:01:19.948Z,16.47
2019-03-01T02:03:48.570Z,17.87
2019-03-01T02:06:17.284Z,15.90
2019-03-01T02:08:45.977Z,17.03
2019-03-01T02:11:14.806Z,14.20
2019-03-01T02:13:43.351Z,13.10
2019-03-01T02:16:11.915Z,20.87
2019-03-01T02:18:40.464Z,13.70
2019-03-01T02:21:09.034Z,20.03
2019-03-01T02:23:37.584Z,12.53
2019-03-01T02:26:06.169Z,15.10
2019-03-01T02:28:34.720Z,18.97
2019-03-01T02:31:06.537Z,13.97
2019-03-01T02:33:35.089Z,12.63
2019-03-01T02:36:03.747Z,15.07
2019-03-01T02:38:32.292Z,13.10
2019-03-01T02:41:00.931Z,12.87
2019-03-01T02:43:29.494Z,14.60
2019-03-01T02:45:58.067Z,13.73
2019-03-01T02:48:26.650Z,9.67
2019-03-01T02:50:55.212Z,14.37
2019-03-01T02:53:23.767Z,10.03
2019-03-01T02:55:52.336Z,16.80
2019-03-01T02:58:20.875Z,12.30
2019-03-01T03:00:49.521Z,9.10
2019-03-01T03:03:18.064Z,11.87
2019-03-01T03:05:54.264Z,15.63
2019-03-01T03:08:22.977Z,11.03
2019-03-01T03:10:51.544Z,7.87
2019-03-01T03:13:20.095Z,11.33
2019-03-01T03:15:50.318Z,10.43
2019-03-01T03:18:18.946Z,14.03
2019-03-01T03:20:47.583Z,6.73
2019-03-01T03:23:16.137Z,18.43
2019-03-01T03:25:44.857Z,10.67
2019-03-01T03:28:13.404Z,8.67
2019-03-01T03:30:42.035Z,12.40
2019-03-01T03:33:10.598Z,13.13
2019-03-01T03:35:39.148Z,13.07
2019-03-01T03:38:07.704Z,8.80
2019-03-01T03:40:36.245Z,12.73
2019-03-01T03:43:04.957Z,8.90
2019-03-01T03:45:33.511Z,11.97
2019-03-01T03:48:02.073Z,8.23
2019-03-01T03:50:30.625Z,11.40
2019-03-01T03:52:59.213Z,14.13
2019-03-01T03:55:27.896Z,13.57
2019-03-01T03:57:56.604Z,16.00
2019-03-01T04:00:25.991Z,10.17
2019-03-01T04:02:54.582Z,14.53
2019-03-01T04:05:23.254Z,14.33
2019-03-01T04:07:51.898Z,12.63
2019-03-01T04:10:20.447Z,20.47
2019-03-01T04:12:49.030Z,9.77
2019-03-01T04:15:18.184Z,10.50
2019-03-01T04:17:46.963Z,17.47
2019-03-01T04:20:17.120Z,14.83
2019-03-01T04:22:45.839Z,18.73
2019-03-01T04:25:14.463Z,14.33
2019-03-01T04:27:43.105Z,15.73
2019-03-01T04:30:18.636Z,11.73
2019-03-01T04:32:47.286Z,15.67
2019-03-01T04:35:16.271Z,14.47
2019-03-01T04:37:44.857Z,16.63
2019-03-01T04:40:16.371Z,9.53
2019-03-01T04:42:44.943Z,9.80
2019-03-01T04:45:19.464Z,13.03
2019-03-01T04:47:48.027Z,11.00
2019-03-01T04:50:16.576Z,9.63
2019-03-01T04:52:45.154Z,10.63
2019-03-01T04:55:19.057Z,10.77
2019-03-01T04:57:47.695Z,14.97
2019-03-01T05:00:21.966Z,12.00
2019-03-01T05:02:50.659Z,9.73
2019-03-01T05:05:19.446Z,14.83
2019-03-01T05:07:48.176Z,15.60
2019-03-01T05:10:17.441Z,18.93
2019-03-01T05:12:46.064Z,14.27
2019-03-01T05:15:16.980Z,10.53
2019-03-01T05:17:45.525Z,14.57
2019-03-01T05:20:14.343Z,16.43
2019-03-01T05:22:43.066Z,19.90
2019-03-01T05:25:11.805Z,21.53
2019-03-01T05:27:40.356Z,20.70
2019-03-01T05:30:14.608Z,18.40
2019-03-01T05:32:43.318Z,20.23
2019-03-01T05:35:13.593Z,17.17
2019-03-01T05:37:42.384Z,16.87
2019-03-01T05:40:15.870Z,11.63
2019-03-01T05:42:44.483Z,17.57
2019-03-01T05:45:19.060Z,16.73
2019-03-01T05:47:47.592Z,15.67
2019-03-01T05:50:16.299Z,16.70
2019-03-01T05:52:44.848Z,13.93
2019-03-01T05:55:13.764Z,17.60
2019-03-01T05:58:18.500Z,13.90
2019-03-01T06:00:47.492Z,17.67
2019-03-01T06:03:39.975Z,22.10
2019-03-01T06:06:10.536Z,15.67
2019-03-01T06:09:14.461Z,15.27
2019-03-01T06:11:46.088Z,21.30
2019-03-01T06:14:47.465Z,14.73
2019-03-01T06:17:27.869Z,18.60
2019-03-01T06:20:11.292Z,23.90
2019-03-01T06:22:54.697Z,23.20
2019-03-01T06:25:29.133Z,20.33
2019-03-01T06:28:15.816Z,18.70
2019-03-01T06:30:51.878Z,22.13
2019-03-01T06:33:36.944Z,34.37
2019-03-01T06:36:14.353Z,32.57
2019-03-01T06:38:56.172Z,26.67
2019-03-01T06:41:46.004Z,16.00
2019-03-01T06:44:35.764Z,36.07
2019-03-01T06:47:22.231Z,44.10
2019-03-01T06:49:52.423Z,95.63
2019-03-01T06:52:23.837Z,27.50
2019-03-01T06:54:52.530Z,18.60
2019-03-01T06:57:21.248Z,16.83
2019-03-01T06:59:49.810Z,18.27
2019-03-01T07:02:25.996Z,21.50
2019-03-01T07:04:54.544Z,16.83
2019-03-01T07:07:23.131Z,16.37
2019-03-01T07:10:11.025Z,12.83
2019-03-01T07:12:39.592Z,13.20
2019-03-01T07:15:08.907Z,11.80
2019-03-01T07:17:37.472Z,10.53
2019-03-01T07:20:08.721Z,12.17
2019-03-01T07:22:37.512Z,10.63
2019-03-01T07:25:07.313Z,14.57
2019-03-01T07:27:35.898Z,10.70
2019-03-01T07:30:07.661Z,10.43
2019-03-01T07:32:36.237Z,6.67
2019-03-01T07:35:06.315Z,10.77
2019-03-01T07:37:34.892Z,11.27
2019-03-01T07:40:05.108Z,9.97
2019-03-01T07:42:33.688Z,7.47
2019-03-01T07:45:02.236Z,6.07
2019-03-01T07:47:30.815Z,7.13
2019-03-01T07:49:59.353Z,5.47
2019-03-01T07:52:27.926Z,6.77
2019-03-01T07:54:56.471Z,7.27
2019-03-01T07:57:25.048Z,4.10
2019-03-01T07:59:53.600Z,9.80
2019-03-01T08:02:22.172Z,5.80
2019-03-01T08:04:50.723Z,8.10
2019-03-01T08:07:20.454Z,6.70
2019-03-01T08:09:49.484Z,6.90
2019-03-01T08:12:18.060Z,9.57
2019-03-01T08:14:46.612Z,9.33
2019-03-01T08:17:15.181Z,10.13
2019-03-01T08:19:45.587Z,6.97
2019-03-01T08:22:13.959Z,13.37
2019-03-01T08:24:42.841Z,13.07
2019-03-01T08:27:12.733Z,15.90
2019-03-01T08:29:41.294Z,9.53
2019-03-01T08:32:09.836Z,14.97
2019-03-01T08:34:38.419Z,15.50
2019-03-01T08:37:08.216Z,15.40
2019-03-01T08:39:39.686Z,12.83
2019-03-01T08:42:07.136Z,11.90
2019-03-01T08:44:35.703Z,9.57
2019-03-01T08:47:04.260Z,11.40
2019-03-01T08:49:32.838Z,12.40
2019-03-01T08:52:02.267Z,9.33
2019-03-01T08:54:31.236Z,10.87
2019-03-01T08:57:00.597Z,17.90
2019-03-01T08:59:29.163Z,9.97
2019-03-01T09:01:57.708Z,14.10
2019-03-01T09:04:26.292Z,15.63
2019-03-01T09:06:54.852Z,8.97
2019-03-01T09:09:23.436Z,13.53
2019-03-01T09:11:52.052Z,18.70
2019-03-01T09:14:22.669Z,12.47
2019-03-01T09:16:50.830Z,11.13
2019-03-01T09:19:22.379Z,14.77
2019-03-01T09:21:50.974Z,15.33
2019-03-01T09:24:19.688Z,15.07
2019-03-01T09:26:51.350Z,15.53
2019-03-01T09:29:19.353Z,14.53
2019-03-01T09:31:48.008Z,15.20
2019-03-01T09:34:16.583Z,13.40
2019-03-01T09:36:46.795Z,19.27
2019-03-01T09:39:18.025Z,19.10
2019-03-01T09:41:45.631Z,17.37
2019-03-01T09:44:14.276Z,13.87
2019-03-01T09:46:42.829Z,13.70
2019-03-01T09:49:11.405Z,13.87
2019-03-01T09:51:39.960Z,13.00
2019-03-01T09:54:09.370Z,12.40
2019-03-01T09:56:38.779Z,8.17
2019-03-01T09:59:07.342Z,12.57
2019-03-01T10:01:35.906Z,10.40
2019-03-01T10:04:04.599Z,13.40
2019-03-01T10:06:38.021Z,8.37
2019-03-01T10:09:04.924Z,9.57
2019-03-01T10:11:33.529Z,8.60
2019-03-01T10:14:02.071Z,6.87
2019-03-01T10:16:30.643Z,3.77
2019-03-01T10:18:59.204Z,3.20
2019-03-01T10:21:28.245Z,19.97
2019-03-01T10:23:56.793Z,4.27
2019-03-01T10:26:25.369Z,4.83
2019-03-01T10:28:53.924Z,3.40
2019-03-01T10:31:22.498Z,3.20
2019-03-01T10:33:51.062Z,3.30
2019-03-01T10:36:19.623Z,3.47
2019-03-01T10:38:48.171Z,3.67
2019-03-01T10:41:16.749Z,3.37
2019-03-01T10:43:45.294Z,3.30
2019-03-01T10:46:13.930Z,3.37
2019-03-01T10:48:42.477Z,3.33
2019-03-01T10:51:11.045Z,3.10
2019-03-01T10:53:39.596Z,3.03
2019-03-01T10:56:08.173Z,3.10
2019-03-01T10:58:36.720Z,3.53
2019-03-01T11:01:05.433Z,3.10
2019-03-01T11:03:33.985Z,29.50
2019-03-01T11:06:02.625Z,8.03
2019-03-01T11:08:31.238Z,3.90
2019-03-01T11:10:59.883Z,3.10
2019-03-01T11:13:28.530Z,16.07
2019-03-01T11:15:57.145Z,3.47
2019-03-01T11:18:25.696Z,3.57
2019-03-01T11:20:54.280Z,3.30
2019-03-01T11:23:22.886Z,3.30
2019-03-01T11:25:51.599Z,3.93
2019-03-01T11:28:20.145Z,8.03
2019-03-01T11:30:48.716Z,3.00
2019-03-01T11:33:17.408Z,3.63
2019-03-01T11:35:46.109Z,3.10
2019-03-01T11:38:14.679Z,3.27
2019-03-01T11:40:43.223Z,3.30
2019-03-01T11:43:11.951Z,2.90
2019-03-01T11:45:40.511Z,3.00
2019-03-01T11:48:09.149Z,2.83
2019-03-01T11:50:38.215Z,4.03
2019-03-01T11:53:06.845Z,3.23
2019-03-01T11:55:35.461Z,5.20
2019-03-01T11:58:04.091Z,4.03
2019-03-01T12:00:32.717Z,4.67
2019-03-01T12:03:01.526Z,4.80
2019-03-01T12:05:30.077Z,4.63
2019-03-01T12:07:58.628Z,4.50
2019-03-01T12:10:31.073Z,3.57
2019-03-01T12:12:59.849Z,3.10
2019-03-01T12:15:28.574Z,3.27
2019-03-01T12:17:57.139Z,3.73
2019-03-01T12:20:27.367Z,4.03
2019-03-01T12:22:55.911Z,3.93
2019-03-01T12:25:24.798Z,3.87
2019-03-01T12:27:53.380Z,4.20
2019-03-01T12:30:26.852Z,4.43
2019-03-01T12:32:55.503Z,5.00
2019-03-01T12:35:24.112Z,5.03
2019-03-01T12:37:52.764Z,3.40
2019-03-01T12:40:28.657Z,4.20
2019-03-01T12:42:57.309Z,4.70
2019-03-01T12:45:25.854Z,3.80
2019-03-01T12:47:54.538Z,3.73
2019-03-01T12:50:23.162Z,4.63
2019-03-01T12:52:52.476Z,3.97
2019-03-01T12:55:41.889Z,4.83
2019-03-01T12:58:19.194Z,3.47
2019-03-01T13:00:40.723Z,3.70
2019-03-01T13:03:09.885Z,3.80
2019-03-01T13:05:38.548Z,3.23
2019-03-01T13:08:07.188Z,3.67
2019-03-01T13:10:40.134Z,3.37
2019-03-01T13:13:09.888Z,3.60
2019-03-01T13:15:38.441Z,3.50
2019-03-01T13:18:10.365Z,3.60
2019-03-01T13:20:38.174Z,4.17
2019-03-01T13:23:06.977Z,4.23
2019-03-01T13:25:35.677Z,3.97
2019-03-01T13:28:04.360Z,5.40
2019-03-01T13:30:35.842Z,4.33
2019-03-01T13:33:03.595Z,4.90
2019-03-01T13:35:32.435Z,4.10
2019-03-01T13:38:00.990Z,6.37
2019-03-01T13:40:29.636Z,4.00
2019-03-01T13:42:58.260Z,3.73
2019-03-01T13:45:26.965Z,4.00
2019-03-01T13:47:55.613Z,3.03
2019-03-01T13:50:24.476Z,3.33
2019-03-01T13:52:53.040Z,3.50
2019-03-01T13:55:23.430Z,3.37
2019-03-01T13:57:52.133Z,3.07
2019-03-01T14:00:22.039Z,3.23
2019-03-01T14:02:50.931Z,3.60
2019-03-01T14:05:19.747Z,4.90
2019-03-01T14:07:55.351Z,3.53
2019-03-01T14:10:22.072Z,3.90
2019-03-01T14:12:50.684Z,3.70
2019-03-01T14:15:19.351Z,4.07
2019-03-01T14:17:48.028Z,4.07
2019-03-01T14:20:20.889Z,4.00
2019-03-01T14:22:49.914Z,6.77
2019-03-01T14:25:18.633Z,6.47
2019-03-01T14:27:47.333Z,4.47
2019-03-01T14:30:20.841Z,4.43
2019-03-01T14:33:02.152Z,3.93
2019-03-01T14:35:30.877Z,3.97
2019-03-01T14:37:59.752Z,3.50
2019-03-01T14:40:28.552Z,4.00
2019-03-01T14:42:57.427Z,3.90
2019-03-01T14:45:31.221Z,4.00
2019-03-01T14:48:00.776Z,3.20
2019-03-01T14:50:33.877Z,5.00
2019-03-01T14:53:01.147Z,4.07
2019-03-01T14:55:50.717Z,4.17
2019-03-01T14:58:23.431Z,4.07
2019-03-01T15:01:19.238Z,3.90
2019-03-01T15:03:49.862Z,3.60
2019-03-01T15:06:19.146Z,4.33
2019-03-01T15:08:48.685Z,4.37
2019-03-01T15:11:17.522Z,3.90
2019-03-01T15:13:46.413Z,5.17
2019-03-01T15:16:15.300Z,4.50
2019-03-01T15:18:44.542Z,4.67
2019-03-01T15:21:14.366Z,4.40
2019-03-01T15:23:43.207Z,4.10
2019-03-01T15:26:12.121Z,4.30
2019-03-01T15:28:46.096Z,3.97
2019-03-01T15:31:14.773Z,7.23
2019-03-01T15:33:46.698Z,3.93
2019-03-01T15:36:17.442Z,4.60
2019-03-01T15:38:43.944Z,4.40
2019-03-01T15:41:12.528Z,4.63
2019-03-01T15:43:41.076Z,5.00
2019-03-01T15:46:11.581Z,7.53
2019-03-01T15:48:39.999Z,6.97
2019-03-01T15:51:08.621Z,4.80
2019-03-01T15:53:37.204Z,5.47
2019-03-01T15:56:07.115Z,6.17
2019-03-01T15:58:35.837Z,5.23
2019-03-01T16:01:25.251Z,6.40
2019-03-01T16:03:54.159Z,5.70
2019-03-01T16:06:24.007Z,4.43
2019-03-01T16:08:52.596Z,4.80
2019-03-01T16:11:21.220Z,5.10
2019-03-01T16:13:49.793Z,6.03
2019-03-01T16:16:18.349Z,8.03
2019-03-01T16:18:46.972Z,5.53
2019-03-01T16:21:15.681Z,6.40
2019-03-01T16:23:44.319Z,5.17
2019-03-01T16:26:12.936Z,5.63
2019-03-01T16:28:41.566Z,9.23
2019-03-01T16:31:10.078Z,8.07
2019-03-01T16:33:38.712Z,7.10
2019-03-01T16:36:08.970Z,10.37
2019-03-01T16:38:40.947Z,9.30
2019-03-01T16:41:08.502Z,16.30
2019-03-01T16:43:37.237Z,10.57
2019-03-01T16:46:05.912Z,8.90
2019-03-01T16:48:34.480Z,6.87
2019-03-01T16:51:03.040Z,6.53
2019-03-01T16:53:31.612Z,8.93
2019-03-01T16:56:02.711Z,8.77
2019-03-01T16:58:30.385Z,10.27
2019-03-01T17:00:58.945Z,11.10
2019-03-01T17:03:27.513Z,11.57
2019-03-01T17:05:56.136Z,14.33
2019-03-01T17:08:25.566Z,18.23
2019-03-01T17:10:54.187Z,13.13
2019-03-01T17:13:23.579Z,10.30
2019-03-01T17:15:52.972Z,12.03
2019-03-01T17:18:21.555Z,9.40
2019-03-01T17:20:50.117Z,11.13
2019-03-01T17:23:18.687Z,15.97
2019-03-01T17:25:47.694Z,9.37
2019-03-01T17:28:21.472Z,10.33
2019-03-01T17:30:46.693Z,10.27
2019-03-01T17:33:16.796Z,10.37
2019-03-01T17:35:45.490Z,11.47
2019-03-01T17:38:14.052Z,12.60
2019-03-01T17:40:42.607Z,11.90
2019-03-01T17:43:11.228Z,13.90
2019-03-01T17:45:39.806Z,11.37
2019-03-01T17:48:08.424Z,12.50
2019-03-01T17:50:37.072Z,14.07
2019-03-01T17:53:06.204Z,15.13
2019-03-01T17:55:37.589Z,11.03
2019-03-01T17:58:08.812Z,14.83
2019-03-01T18:00:41.409Z,10.80
2019-03-01T18:03:09.948Z,11.80
2019-03-01T18:05:40.748Z,18.80
2019-03-01T18:08:08.871Z,18.77
2019-03-01T18:10:37.452Z,17.80
2019-03-01T18:13:06.144Z,16.40
2019-03-01T18:15:34.844Z,14.17
2019-03-01T18:18:03.394Z,15.90
2019-03-01T18:20:34.045Z,13.33
2019-03-01T18:23:03.187Z,15.27
2019-03-01T18:25:31.878Z,14.83
2019-03-01T18:28:00.528Z,14.87
2019-03-01T18:30:33.910Z,14.77
2019-03-01T18:33:02.634Z,15.30
2019-03-01T18:35:31.376Z,13.30
2019-03-01T18:38:00.012Z,15.57
2019-03-01T18:40:28.657Z,16.63
2019-03-01T18:42:57.285Z,16.97
2019-03-01T18:45:29.312Z,17.70
2019-03-01T18:47:57.869Z,19.37
2019-03-01T18:50:35.559Z,14.33
2019-03-01T18:53:04.399Z,16.93
2019-03-01T18:55:33.269Z,13.00
2019-03-01T18:58:02.056Z,12.77
2019-03-01T19:00:35.846Z,16.97
2019-03-01T19:03:05.511Z,17.07
2019-03-01T19:05:36.736Z,15.53
2019-03-01T19:08:06.133Z,18.10
2019-03-01T19:10:35.499Z,16.87
2019-03-01T19:13:04.594Z,16.77
2019-03-01T19:15:33.524Z,16.47
2019-03-01T19:18:02.254Z,25.07
2019-03-01T19:20:34.129Z,35.77
2019-03-01T19:23:02.816Z,16.57
2019-03-01T19:25:31.469Z,23.50
2019-03-01T19:28:00.067Z,18.57
2019-03-01T19:30:28.656Z,19.60
2019-03-01T19:32:58.912Z,17.83
2019-03-01T19:35:29.626Z,21.67
2019-03-01T19:37:57.741Z,17.93
2019-03-01T19:40:29.362Z,21.40
2019-03-01T19:42:57.968Z,19.03
2019-03-01T19:45:26.671Z,17.93
2019-03-01T19:48:01.326Z,21.43
2019-03-01T19:50:27.361Z,16.33
2019-03-01T19:52:56.078Z,27.17
2019-03-01T19:55:24.854Z,24.10
2019-03-01T19:57:53.607Z,26.03
2019-03-01T20:00:26.944Z,22.73
2019-03-01T20:02:55.617Z,22.73
2019-03-01T20:05:31.860Z,23.00
2019-03-01T20:08:00.513Z,24.20
2019-03-01T20:10:29.240Z,22.90
2019-03-01T20:12:57.890Z,21.50
2019-03-01T20:15:28.821Z,20.77
2019-03-01T20:17:57.544Z,21.33
2019-03-01T20:20:33.131Z,21.83
2019-03-01T20:22:59.962Z,22.63
2019-03-01T20:25:29.056Z,20.00
2019-03-01T20:27:57.886Z,23.30
2019-03-01T20:30:30.186Z,20.47
2019-03-01T20:32:58.704Z,24.23
2019-03-01T20:35:27.412Z,21.97
2019-03-01T20:37:55.993Z,25.17
2019-03-01T20:40:26.973Z,25.63
2019-03-01T20:42:59.893Z,26.07
2019-03-01T20:45:29.878Z,28.53
2019-03-01T20:47:58.825Z,22.87
2019-03-01T20:50:27.766Z,25.27
2019-03-01T20:52:56.432Z,27.13
2019-03-01T20:55:25.068Z,25.43
2019-03-01T20:57:53.783Z,24.90
2019-03-01T21:00:26.173Z,23.63
2019-03-01T21:02:54.275Z,23.33
2019-03-01T21:05:25.057Z,28.17
2019-03-01T21:07:54.159Z,28.80
2019-03-01T21:10:32.368Z,29.23
2019-03-01T21:13:00.966Z,30.33
2019-03-01T21:15:48.847Z,28.03
2019-03-01T21:18:17.436Z,31.23
2019-03-01T21:20:46.058Z,25.37
2019-03-01T21:23:15.180Z,33.17
2019-03-01T21:25:44.560Z,37.97
2019-03-01T21:28:13.188Z,31.20
2019-03-01T21:30:41.855Z,35.30
2019-03-01T21:33:10.416Z,29.17
2019-03-01T21:35:38.997Z,45.57
2019-03-01T21:38:10.612Z,34.37
2019-03-01T21:40:38.088Z,35.70
2019-03-01T21:43:06.640Z,39.63
2019-03-01T21:45:35.289Z,37.83
2019-03-01T21:48:03.847Z,41.07
2019-03-01T21:50:32.423Z,41.10
2019-03-01T21:53:01.760Z,38.83
2019-03-01T21:55:31.200Z,45.43
2019-03-01T21:57:59.760Z,37.80
2019-03-01T22:00:30.892Z,46.10
2019-03-01T22:02:59.317Z,46.10
2019-03-01T22:05:27.968Z,49.70
2019-03-01T22:07:56.576Z,43.10
2019-03-01T22:10:25.203Z,42.37
2019-03-01T22:12:56.904Z,38.40
2019-03-01T22:15:29.952Z,49.37
2019-03-01T22:17:58.629Z,46.23
2019-03-01T22:20:27.188Z,45.37
2019-03-01T22:22:55.791Z,46.70
2019-03-01T22:25:24.474Z,36.87
2019-03-01T22:27:53.241Z,36.50
2019-03-01T22:30:24.927Z,38.27
2019-03-01T22:32:53.488Z,37.17
2019-03-01T22:35:22.075Z,38.93
2019-03-01T22:37:50.628Z,38.67
2019-03-01T22:40:19.281Z,36.33
2019-03-01T22:42:49.615Z,36.67
2019-03-01T22:45:18.798Z,37.30
2019-03-01T22:47:47.360Z,46.73
2019-03-01T22:50:19.846Z,47.57
2019-03-01T22:52:48.475Z,40.87
2019-03-01T22:55:18.092Z,39.70
2019-03-01T22:57:46.747Z,43.77
2019-03-01T23:00:47.210Z,40.97
2019-03-01T23:03:19.010Z,47.77
2019-03-01T23:05:46.908Z,47.73
2019-03-01T23:08:15.525Z,41.33
2019-03-01T23:10:44.231Z,49.57
2019-03-01T23:13:12.790Z,46.20
2019-03-01T23:15:43.394Z,49.37
2019-03-01T23:18:11.566Z,49.60
2019-03-01T23:20:40.139Z,44.27
2019-03-01T23:23:08.691Z,50.07
2019-03-01T23:25:37.277Z,45.27
2019-03-01T23:28:08.258Z,47.97
2019-03-01T23:30:36.357Z,48.03
2019-03-01T23:33:04.920Z,45.47
2019-03-01T23:35:33.492Z,52.80
2019-03-01T23:38:02.099Z,51.87
2019-03-01T23:40:32.834Z,48.93
2019-03-01T23:43:00.949Z,62.67
2019-03-01T23:45:29.528Z,50.03
2019-03-01T23:47:58.155Z,58.67
2019-03-01T23:50:27.036Z,46.67
2019-03-01T23:52:58.686Z,51.20
2019-03-01T23:55:26.187Z,55.67
2019-03-01T23:57:54.835Z,52.70
